TimePDT,TemperatureF,Dew PointF,Humidity,Sea Level PressureIn,VisibilityMPH,Wind Direction,Wind SpeedMPH,Gust SpeedMPH,PrecipitationIn,Events,Conditions,WindDirDegrees,DateUTC
12:53 AM,36.0,30.0,79,29.87,10.0,SSE,5.8,-,N/A,,Scattered Clouds,150,2012-10-21 07:53:00
1:53 AM,28.9,27.0,92,29.89,10.0,SSE,3.5,-,N/A,,Clear,160,2012-10-21 08:53:00
2:53 AM,24.1,24.1,100,29.90,10.0,Calm,Calm,-,N/A,,Clear,0,2012-10-21 09:53:00
3:53 AM,23.0,21.0,92,29.91,10.0,Calm,Calm,-,N/A,,Clear,0,2012-10-21 10:53:00
4:53 AM,24.1,21.9,91,29.92,10.0,NW,3.5,-,N/A,,Partly Cloudy,310,2012-10-21 11:53:00
5:07 AM,23.0,21.2,93,29.87,10.0,North,3.5,-,N/A,,Mostly Cloudy,350,2012-10-21 12:07:00
5:39 AM,28.4,26.6,93,29.87,10.0,Calm,Calm,-,N/A,,Overcast,0,2012-10-21 12:39:00
5:53 AM,30.0,28.0,92,29.92,10.0,Calm,Calm,-,N/A,,Overcast,0,2012-10-21 12:53:00
6:53 AM,33.1,32.0,96,29.92,10.0,Calm,Calm,-,N/A,,Overcast,0,2012-10-21 13:53:00
7:53 AM,36.0,32.0,86,29.94,10.0,Calm,Calm,-,N/A,,Overcast,0,2012-10-21 14:53:00
8:53 AM,36.0,32.0,86,29.95,10.0,SSE,3.5,-,N/A,,Overcast,150,2012-10-21 15:53:00
9:42 AM,37.4,33.8,87,29.91,10.0,Calm,Calm,-,N/A,,Overcast,0,2012-10-21 16:42:00
9:53 AM,37.9,33.1,83,29.95,10.0,SE,3.5,-,N/A,,Overcast,140,2012-10-21 16:53:00
10:53 AM,39.9,33.1,77,29.95,10.0,SSE,4.6,-,N/A,,Overcast,150,2012-10-21 17:53:00
11:53 AM,42.1,33.1,70,29.94,10.0,SW,4.6,-,N/A,,Overcast,220,2012-10-21 18:53:00
12:53 PM,42.1,33.1,70,29.93,10.0,Calm,Calm,-,N/A,,Overcast,0,2012-10-21 19:53:00
1:53 PM,44.1,35.1,71,29.91,10.0,NNW,4.6,-,0.00,,Overcast,330,2012-10-21 20:53:00
2:53 PM,45.0,33.1,63,29.91,10.0,Calm,Calm,-,N/A,,Scattered Clouds,0,2012-10-21 21:53:00
3:53 PM,44.1,33.1,65,29.91,10.0,NNW,5.8,-,N/A,,Overcast,330,2012-10-21 22:53:00
4:53 PM,41.0,35.1,79,29.92,10.0,NE,4.6,-,0.01,,Mostly Cloudy,50,2012-10-21 23:53:00
5:53 PM,37.9,35.1,89,29.92,10.0,NE,3.5,-,0.00,,Overcast,40,2012-10-22 00:53:00
6:53 PM,33.1,30.9,92,29.91,10.0,ENE,4.6,-,N/A,,Clear,60,2012-10-22 01:53:00
7:53 PM,32.0,32.0,100,29.91,10.0,NNE,4.6,-,N/A,,Clear,30,2012-10-22 02:53:00
8:53 PM,33.1,32.0,96,29.91,10.0,NNE,5.8,-,N/A,,Mostly Cloudy,20,2012-10-22 03:53:00
9:53 PM,35.1,33.1,92,29.91,10.0,North,8.1,-,N/A,,Scattered Clouds,10,2012-10-22 04:53:00
10:53 PM,35.1,33.1,92,29.90,10.0,NNE,10.4,-,N/A,,Clear,20,2012-10-22 05:53:00
11:53 PM,35.1,33.1,92,29.89,10.0,North,9.2,-,N/A,,Mostly Cloudy,10,2012-10-22 06:53:00